Дата Пункты Температура Давл., мм. Влажн., % Ветер Погодные явления
Воздуха Воды Направл. Скорость
19.06.16 03:00 Одесса 25.0 22.0 761 73 Пн-С 1 15 часов
19.06.16 12:00 Одесса 24.0 22.0 761 81 Пд 3 12 часов
19.06.16 09:00 Одесса 21.0 22.0 761 91 Пн 1 09 часов
19.06.16 06:00 Одесса 21.0 20.0 761 91 Пн 3 06 часов
19.06.16 03:00 Одесса 21.0 20.0 761 98 Пн-З 1 03 часа
18.06.16 09:00 Одесса 22.0 20.0 759 95 Пд-З 2 21 час
18.06.16 06:00 Одесса 23.0 20.0 759 91 Пд 5 18 часов
18.06.16 03:00 Одесса 24.0 20.0 760 87 Пд 4 15 часов
18.06.16 12:00 Одесса 24.0 20.0 760 88 Пд 5 12 часов
18.06.16 09:00 Одесса 24.0 20.0 759 77 Пд-З 2 09 часов
18.06.16 06:00 Одесса 21.0 20.0 759 94 Пд 3 06 часов
18.06.16 03:00 Одесса 22.0 20.0 759 92 Пд-З 2 03 часа
17.06.16 09:00 Одесса 22.0 20.0 759 91 Пд 3 21 час
17.06.16 06:00 Одесса 24.0 20.0 759 84 Пд 4 18 часов
17.06.16 03:00 Одесса 24.0 20.0 760 84 Пд 5 15 часов
17.06.16 12:00 Одесса 24.0 21.0 760 80 Пд-С 2 12 часов
17.06.16 09:00 Одесса 24.0 21.0 760 82 Пд-С 1 09 часов
17.06.16 06:00 Одесса 20.0 21.0 759 88 Пн 1 06 часов
17.06.16 03:00 Одесса 19.0 21.0 759 96 Пн 0 03 часа
16.06.16 09:00 Одесса 22.0 22.0 757 80 Пд-З 1 21 час
Количество строк
351 352 353 354 355 356 357 358 359 360
Page 354 of 530